createdAt,value
2023-04-02T00:00:10.330Z,85.75
2023-04-02T00:02:55.177Z,85.91
2023-04-02T00:05:24.704Z,85.13
2023-04-02T00:07:54.070Z,84.92
2023-04-02T00:10:32.846Z,84.14
2023-04-02T00:13:05.056Z,83.24
2023-04-02T00:15:32.450Z,85.44
2023-04-02T00:18:00.436Z,87.75
2023-04-02T00:20:29.098Z,86.75
2023-04-02T00:22:55.742Z,86.68
2023-04-02T00:25:22.911Z,87.05
2023-04-02T00:27:49.770Z,89.55
2023-04-02T00:30:16.371Z,87.37
2023-04-02T00:32:43.140Z,86.40
2023-04-02T00:35:29.318Z,87.07
2023-04-02T00:37:56.798Z,86.29
2023-04-02T00:40:29.508Z,88.31
2023-04-02T00:42:59.947Z,87.36
2023-04-02T00:45:31.264Z,87.16
2023-04-02T00:48:00.266Z,86.95
2023-04-02T00:50:41.399Z,84.34
2023-04-02T00:53:18.168Z,84.45
2023-04-02T00:55:45.232Z,86.59
2023-04-02T00:58:33.676Z,86.12
2023-04-02T01:01:03.834Z,86.29
2023-04-02T01:03:36.404Z,87.75
2023-04-02T01:06:17.861Z,86.62
2023-04-02T01:08:49.257Z,84.88
2023-04-02T01:11:50.497Z,85.41
2023-04-02T01:14:38.165Z,85.62
2023-04-02T01:17:20.794Z,86.43
2023-04-02T01:19:50.501Z,85.04
2023-04-02T01:22:26.277Z,86.64
2023-04-02T01:24:57.608Z,87.01
2023-04-02T01:27:35.192Z,87.82
2023-04-02T01:30:04.446Z,86.09
2023-04-02T01:32:31.695Z,83.30
2023-04-02T01:34:58.700Z,85.23
2023-04-02T01:37:47.060Z,85.46
2023-04-02T01:40:28.686Z,86.88
2023-04-02T01:43:20.234Z,84.58
2023-04-02T01:45:47.489Z,85.49
2023-04-02T01:48:25.738Z,83.91
2023-04-02T01:50:56.531Z,84.74
2023-04-02T01:53:27.166Z,84.29
2023-04-02T01:55:59.973Z,85.76
2023-04-02T01:58:29.298Z,85.57
2023-04-02T02:01:16.375Z,85.17
2023-04-02T02:03:44.962Z,85.92
2023-04-02T02:06:15.400Z,85.98
2023-04-02T02:08:53.312Z,86.01
2023-04-02T02:11:26.082Z,86.89
2023-04-02T02:14:01.544Z,86.01
2023-04-02T02:16:30.227Z,86.47
2023-04-02T02:19:01.928Z,85.49
2023-04-02T02:21:43.982Z,86.43
2023-04-02T02:24:19.606Z,86.71
2023-04-02T02:26:51.534Z,84.22
2023-04-02T02:29:21.239Z,86.22
2023-04-02T02:31:53.949Z,84.34
2023-04-02T02:34:28.020Z,86.54
2023-04-02T02:37:28.887Z,86.63
2023-04-02T02:39:59.472Z,86.65
2023-04-02T02:42:32.817Z,88.07
2023-04-02T02:45:02.469Z,88.05
2023-04-02T02:47:33.270Z,89.08
2023-04-02T02:50:04.650Z,88.05
2023-04-02T02:52:35.650Z,88.88
2023-04-02T02:55:13.454Z,87.22
2023-04-02T02:57:47.552Z,89.15
2023-04-02T03:00:16.322Z,88.33
2023-04-02T03:02:44.756Z,89.29
2023-04-02T03:05:21.590Z,89.67
2023-04-02T03:07:50.805Z,88.96
2023-04-02T03:10:21.351Z,87.75
2023-04-02T03:13:05.308Z,88.82
2023-04-02T03:15:48.360Z,88.98
2023-04-02T03:18:36.583Z,89.28
2023-04-02T03:21:21.376Z,88.01
2023-04-02T03:23:59.810Z,87.40
2023-04-02T03:27:07.042Z,90.28
2023-04-02T03:29:38.199Z,89.29
2023-04-02T03:32:20.896Z,89.59
2023-04-02T03:34:55.143Z,88.71
2023-04-02T03:37:49.947Z,91.67
2023-04-02T03:40:25.882Z,91.95
2023-04-02T03:43:04.071Z,91.27
2023-04-02T03:45:42.197Z,89.50
2023-04-02T03:48:33.377Z,88.66
2023-04-02T03:51:00.574Z,89.47
2023-04-02T03:53:28.824Z,89.23
2023-04-02T03:55:57.389Z,91.35
2023-04-02T03:58:42.932Z,89.68
2023-04-02T04:01:29.071Z,91.41
2023-04-02T04:04:04.791Z,91.17
2023-04-02T04:06:36.392Z,90.00
2023-04-02T04:09:10.741Z,87.73
2023-04-02T04:11:45.941Z,90.19
2023-04-02T04:14:27.633Z,90.64
2023-04-02T04:17:05.235Z,91.45
2023-04-02T04:19:55.179Z,91.29
2023-04-02T04:22:27.055Z,90.66
2023-04-02T04:24:55.109Z,90.78
2023-04-02T04:27:44.133Z,91.85
2023-04-02T04:30:22.416Z,92.10
2023-04-02T04:32:56.146Z,91.67
2023-04-02T04:35:29.890Z,90.90
2023-04-02T04:38:20.227Z,89.03
2023-04-02T04:40:55.826Z,89.98
2023-04-02T04:43:42.518Z,93.08
2023-04-02T04:46:39.073Z,91.15
2023-04-02T04:49:14.030Z,93.56
2023-04-02T04:51:48.130Z,92.86
2023-04-02T04:54:16.615Z,93.99
2023-04-02T04:57:00.248Z,92.33
2023-04-02T04:59:48.926Z,91.66
2023-04-02T05:02:25.025Z,93.31
2023-04-02T05:04:53.093Z,94.06
2023-04-02T05:07:29.546Z,93.10
2023-04-02T05:09:56.102Z,93.98
2023-04-02T05:12:35.666Z,93.45
2023-04-02T05:15:11.318Z,92.76
2023-04-02T05:17:54.071Z,93.62
2023-04-02T05:20:29.761Z,92.27
2023-04-02T05:23:04.940Z,92.89
2023-04-02T05:25:33.017Z,92.69
2023-04-02T05:28:07.194Z,93.83
2023-04-02T05:30:45.907Z,93.35
2023-04-02T05:33:31.326Z,91.99
2023-04-02T05:36:10.980Z,92.71
2023-04-02T05:38:40.337Z,90.42
2023-04-02T05:41:21.532Z,90.60
2023-04-02T05:43:49.998Z,91.89
2023-04-02T05:46:21.398Z,91.37
2023-04-02T05:48:54.680Z,90.22
2023-04-02T05:51:42.578Z,90.57
2023-04-02T05:54:25.716Z,90.58
2023-04-02T05:57:00.506Z,89.48
2023-04-02T05:59:38.492Z,88.91
2023-04-02T06:02:05.253Z,88.70
2023-04-02T06:04:56.741Z,89.04
2023-04-02T06:07:29.793Z,85.21
2023-04-02T06:10:05.558Z,86.09
2023-04-02T06:12:53.962Z,83.85
2023-04-02T06:15:23.095Z,82.77
2023-04-02T06:17:58.460Z,83.09
2023-04-02T06:20:25.751Z,83.34
2023-04-02T06:23:14.849Z,82.31
2023-04-02T06:26:05.847Z,84.19
2023-04-02T06:28:40.924Z,83.50
2023-04-02T06:31:38.298Z,83.18
2023-04-02T06:34:09.068Z,82.31
2023-04-02T06:36:35.753Z,81.09
2023-04-02T06:39:08.348Z,81.06
2023-04-02T06:41:35.032Z,80.23
2023-04-02T06:44:12.252Z,79.30
2023-04-02T06:46:52.563Z,79.82
2023-04-02T06:49:21.806Z,77.94
2023-04-02T06:51:52.587Z,77.63
2023-04-02T06:54:19.666Z,78.31
2023-04-02T06:56:49.926Z,77.16
2023-04-02T06:59:17.277Z,76.96
2023-04-02T07:01:52.507Z,76.66
2023-04-02T07:04:20.821Z,76.37
2023-04-02T07:06:48.116Z,75.33
2023-04-02T07:09:14.780Z,73.54
2023-04-02T07:11:41.367Z,74.53
2023-04-02T07:14:11.356Z,75.05
2023-04-02T07:16:38.008Z,74.52
2023-04-02T07:19:05.158Z,74.62
2023-04-02T07:21:31.967Z,73.74
2023-04-02T07:23:58.758Z,73.86
2023-04-02T07:26:27.352Z,72.59
2023-04-02T07:28:55.802Z,72.71
2023-04-02T07:31:27.880Z,71.65
2023-04-02T07:33:57.204Z,71.29
2023-04-02T07:36:24.489Z,73.23
2023-04-02T07:38:51.169Z,72.47
2023-04-02T07:41:18.505Z,72.50
2023-04-02T07:43:45.745Z,71.71
2023-04-02T07:46:13.505Z,72.28
2023-04-02T07:48:40.141Z,72.14
2023-04-02T07:51:18.650Z,73.99
2023-04-02T07:53:45.395Z,73.31
2023-04-02T07:56:14.731Z,72.13
2023-04-02T07:58:41.447Z,71.96
2023-04-02T08:01:16.824Z,72.49
2023-04-02T08:03:43.569Z,71.78
2023-04-02T08:06:10.307Z,71.65
2023-04-02T08:08:36.925Z,72.43
2023-04-02T08:11:03.591Z,72.31
2023-04-02T08:13:30.228Z,72.83
2023-04-02T08:15:58.873Z,72.52
2023-04-02T08:18:25.877Z,74.10
2023-04-02T08:20:52.714Z,72.08
2023-04-02T08:23:19.724Z,70.99
2023-04-02T08:25:46.435Z,72.50
2023-04-02T08:28:13.611Z,74.56
2023-04-02T08:30:40.844Z,72.89
2023-04-02T08:33:07.594Z,71.36
2023-04-02T08:35:34.783Z,72.32
2023-04-02T08:38:01.716Z,70.53
2023-04-02T08:40:37.270Z,71.55
2023-04-02T08:43:29.194Z,71.11
2023-04-02T08:46:07.519Z,68.61
2023-04-02T08:51:07.868Z,70.38
2023-04-02T08:53:37.886Z,71.07
2023-04-02T08:56:29.382Z,71.08
2023-04-02T08:59:03.813Z,71.29
2023-04-02T09:01:48.877Z,70.80
2023-04-02T09:04:20.177Z,69.31
2023-04-02T09:06:48.957Z,68.67
2023-04-02T09:09:16.984Z,70.30
2023-04-02T09:11:59.320Z,69.96
2023-04-02T09:14:50.353Z,66.94
2023-04-02T09:17:20.896Z,66.50
2023-04-02T09:20:00.769Z,62.93
2023-04-02T09:22:30.213Z,65.78
2023-04-02T09:25:02.188Z,66.98
2023-04-02T09:27:32.154Z,65.49
2023-04-02T09:30:01.670Z,63.69
2023-04-02T09:32:40.128Z,64.25
2023-04-02T09:35:28.202Z,64.71
2023-04-02T09:38:10.104Z,62.75
2023-04-02T09:41:02.800Z,64.15
2023-04-02T09:43:32.729Z,61.45
2023-04-02T09:46:05.223Z,61.64
2023-04-02T09:48:36.073Z,63.42
2023-04-02T09:51:15.615Z,62.91
2023-04-02T09:53:43.187Z,65.98
2023-04-02T09:56:20.581Z,63.25
2023-04-02T09:59:07.406Z,65.74
2023-04-02T10:01:39.284Z,63.91
2023-04-02T10:04:27.052Z,66.74
2023-04-02T10:06:53.842Z,65.53
2023-04-02T10:09:31.979Z,65.03
2023-04-02T10:12:00.492Z,65.55
2023-04-02T10:14:33.372Z,65.77
2023-04-02T10:17:14.400Z,63.98
2023-04-02T10:19:47.736Z,63.17
2023-04-02T10:22:22.104Z,66.35
2023-04-02T10:24:49.853Z,62.67
2023-04-02T10:27:37.740Z,64.90
2023-04-02T10:30:13.441Z,62.67
2023-04-02T10:32:59.838Z,63.21
2023-04-02T10:35:39.042Z,64.16
2023-04-02T10:38:33.785Z,64.31
2023-04-02T10:41:11.631Z,66.10
2023-04-02T10:43:47.198Z,62.50
2023-04-02T10:46:20.056Z,62.54
2023-04-02T10:49:27.517Z,62.41
2023-04-02T10:52:20.103Z,64.07
2023-04-02T10:54:55.467Z,61.75
2023-04-02T10:57:35.667Z,59.78
2023-04-02T11:00:08.099Z,59.96
2023-04-02T11:02:43.305Z,58.18
2023-04-02T11:05:28.467Z,59.95
2023-04-02T11:08:20.505Z,67.63
2023-04-02T11:11:10.066Z,59.61
2023-04-02T11:13:43.032Z,60.66
2023-04-02T11:16:12.838Z,55.98
2023-04-02T11:18:39.482Z,56.51
2023-04-02T11:21:50.993Z,55.10
2023-04-02T11:24:30.262Z,59.75
2023-04-02T11:27:12.150Z,59.71
2023-04-02T11:29:47.988Z,60.63
2023-04-02T11:32:20.639Z,57.07
2023-04-02T11:34:56.340Z,58.08
2023-04-02T11:37:42.110Z,56.19
2023-04-02T11:40:11.839Z,55.85
2023-04-02T11:42:49.634Z,59.72
2023-04-02T11:45:22.535Z,55.91
2023-04-02T11:48:01.589Z,58.02
2023-04-02T11:50:34.565Z,56.47
2023-04-02T11:53:22.104Z,55.55
2023-04-02T11:55:57.751Z,53.97
2023-04-02T11:59:01.039Z,55.80
2023-04-02T12:01:53.892Z,54.66
2023-04-02T12:04:40.618Z,56.69
2023-04-02T12:07:19.177Z,54.39
2023-04-02T12:09:48.746Z,56.01
2023-04-02T12:12:24.807Z,52.47
2023-04-02T12:14:54.042Z,52.25
2023-04-02T12:17:40.124Z,51.28
2023-04-02T12:20:06.807Z,51.49
2023-04-02T12:22:36.197Z,52.11
2023-04-02T12:25:23.503Z,50.70
2023-04-02T12:28:11.113Z,51.08
2023-04-02T12:30:38.882Z,51.02
2023-04-02T12:33:40.958Z,52.33
2023-04-02T12:36:13.747Z,52.15
2023-04-02T12:38:45.579Z,51.51
2023-04-02T12:41:32.252Z,52.21
2023-04-02T12:44:07.414Z,52.32
2023-04-02T12:46:35.713Z,52.00
2023-04-02T12:49:37.018Z,50.87
2023-04-02T12:52:07.861Z,50.51
2023-04-02T12:54:57.951Z,52.45
2023-04-02T12:57:27.670Z,52.80
2023-04-02T12:59:59.546Z,50.68
2023-04-02T13:02:31.633Z,52.08
2023-04-02T13:05:00.570Z,52.02
2023-04-02T13:07:30.519Z,53.88
2023-04-02T13:10:00.406Z,54.40
2023-04-02T13:12:26.945Z,52.99
2023-04-02T13:14:59.018Z,52.96
2023-04-02T13:17:42.745Z,54.78
2023-04-02T13:20:33.898Z,51.76
2023-04-02T13:23:22.413Z,53.78
2023-04-02T13:25:49.097Z,54.06
2023-04-02T13:28:15.836Z,55.63
2023-04-02T13:30:42.560Z,54.48
2023-04-02T13:33:09.389Z,52.48
2023-04-02T13:35:36.435Z,52.65
2023-04-02T13:38:03.121Z,56.24
2023-04-02T13:40:29.851Z,52.24
2023-04-02T13:42:56.610Z,53.45
2023-04-02T13:45:36.877Z,55.65
2023-04-02T13:48:04.425Z,55.15
2023-04-02T13:50:33.491Z,54.36
2023-04-02T13:53:07.169Z,56.82
2023-04-02T13:55:40.601Z,57.46
2023-04-02T13:58:07.553Z,56.47
2023-04-02T14:00:37.093Z,57.78
2023-04-02T14:03:10.082Z,57.19
2023-04-02T14:05:37.050Z,57.49
2023-04-02T14:08:34.785Z,57.63
2023-04-02T14:11:14.384Z,55.80
2023-04-02T14:13:46.801Z,54.21
2023-04-02T14:17:01.526Z,55.32
2023-04-02T14:19:38.641Z,56.14
2023-04-02T14:22:08.349Z,53.85
2023-04-02T14:25:00.053Z,52.06
2023-04-02T14:27:40.308Z,52.61
2023-04-02T14:30:22.457Z,50.24
2023-04-02T14:33:05.399Z,51.20
2023-04-02T14:35:45.240Z,52.20
2023-04-02T14:38:30.116Z,50.04
2023-04-02T14:41:19.606Z,50.78
2023-04-02T14:44:01.243Z,53.68
2023-04-02T14:46:29.540Z,54.15
2023-04-02T14:49:01.471Z,54.73
2023-04-02T14:51:40.028Z,54.18
2023-04-02T14:54:12.607Z,55.96
2023-04-02T14:56:51.047Z,57.94
2023-04-02T14:59:40.140Z,58.63
2023-04-02T15:02:20.762Z,59.86
2023-04-02T15:04:57.480Z,60.85
2023-04-02T15:07:32.677Z,59.23
2023-04-02T15:10:07.761Z,57.83
2023-04-02T15:12:37.197Z,58.12
2023-04-02T15:15:39.093Z,59.04
2023-04-02T15:18:12.535Z,60.40
2023-04-02T15:20:45.422Z,62.83
2023-04-02T15:23:33.351Z,66.25
2023-04-02T15:26:19.788Z,68.08
2023-04-02T15:28:51.916Z,68.63
2023-04-02T15:31:23.183Z,69.13
2023-04-02T15:33:58.487Z,68.62
2023-04-02T15:36:40.329Z,68.60
2023-04-02T15:39:29.666Z,67.06
2023-04-02T15:42:22.748Z,69.70
2023-04-02T15:44:56.638Z,70.84
2023-04-02T15:47:46.726Z,74.60
2023-04-02T15:50:42.709Z,74.54
2023-04-02T15:53:28.794Z,78.47
2023-04-02T15:56:17.006Z,78.87
2023-04-02T15:58:55.420Z,77.40
2023-04-02T16:01:51.636Z,77.52
2023-04-02T16:04:21.026Z,80.75
2023-04-02T16:07:05.910Z,82.53
2023-04-02T16:10:05.026Z,80.09
2023-04-02T16:12:34.941Z,86.03
2023-04-02T16:15:16.763Z,84.15
2023-04-02T16:17:53.954Z,83.25
2023-04-02T16:20:31.505Z,88.70
2023-04-02T16:23:13.286Z,89.04
2023-04-02T16:26:17.438Z,89.71
2023-04-02T16:29:33.517Z,96.32
2023-04-02T16:32:32.049Z,97.19
2023-04-02T16:38:53.781Z,85.37
2023-04-02T16:41:57.399Z,80.32
2023-04-02T16:44:45.561Z,78.00
2023-04-02T16:47:42.825Z,77.33
2023-04-02T16:50:38.444Z,83.78
2023-04-02T16:53:41.366Z,84.95
2023-04-02T16:56:42.953Z,85.64
2023-04-02T16:59:43.505Z,79.89
2023-04-02T17:02:32.915Z,80.38
2023-04-02T17:05:09.762Z,81.74
2023-04-02T17:07:42.150Z,82.23
2023-04-02T17:10:46.300Z,86.16
2023-04-02T17:13:27.171Z,80.85
2023-04-02T17:16:02.837Z,85.03
2023-04-02T17:18:31.043Z,88.27
2023-04-02T17:21:03.799Z,88.00
2023-04-02T17:23:54.854Z,88.87
2023-04-02T17:26:28.715Z,87.62
2023-04-02T17:28:58.770Z,84.45
2023-04-02T17:31:28.807Z,87.99
2023-04-02T17:33:55.536Z,90.92
2023-04-02T17:36:40.180Z,89.73
2023-04-02T17:39:25.030Z,93.70
2023-04-02T17:42:19.516Z,85.10
2023-04-02T17:45:38.913Z,90.29
2023-04-02T17:48:34.283Z,90.88
2023-04-02T17:51:12.752Z,87.28
2023-04-02T17:53:45.007Z,82.51
2023-04-02T17:56:14.668Z,80.32
2023-04-02T17:58:59.626Z,78.75
2023-04-02T18:01:29.000Z,81.47
2023-04-02T18:03:58.395Z,77.71
2023-04-02T18:06:44.830Z,77.94
2023-04-02T18:09:44.276Z,80.56
2023-04-02T18:12:20.315Z,78.01
2023-04-02T18:15:11.388Z,78.66
2023-04-02T18:17:52.486Z,77.43
2023-04-02T18:20:22.233Z,78.79
2023-04-02T18:23:22.216Z,78.16
2023-04-02T18:25:57.931Z,76.56
2023-04-02T18:28:37.573Z,78.40
2023-04-02T18:31:13.345Z,77.13
2023-04-02T18:34:02.115Z,79.49
2023-04-02T18:36:55.418Z,75.48
2023-04-02T18:39:45.167Z,78.43
2023-04-02T18:42:42.530Z,76.35
2023-04-02T18:45:25.070Z,77.96
2023-04-02T18:48:10.178Z,76.49
2023-04-02T18:50:38.610Z,77.75
2023-04-02T18:53:19.678Z,76.11
2023-04-02T18:55:59.154Z,77.96
2023-04-02T18:58:34.052Z,76.06
2023-04-02T19:01:01.384Z,78.43
2023-04-02T19:03:33.015Z,75.97
2023-04-02T19:06:12.767Z,76.92
2023-04-02T19:08:47.135Z,76.88
2023-04-02T19:11:20.482Z,76.38
2023-04-02T19:13:47.109Z,75.09
2023-04-02T19:16:39.034Z,76.57
2023-04-02T19:19:11.584Z,74.99
2023-04-02T19:22:01.977Z,76.05
2023-04-02T19:24:43.686Z,75.21
2023-04-02T19:27:36.791Z,76.24
2023-04-02T19:30:18.756Z,76.51
2023-04-02T19:32:48.397Z,75.00
2023-04-02T19:35:52.191Z,75.67
2023-04-02T19:38:48.345Z,74.86
2023-04-02T19:41:32.832Z,75.89
2023-04-02T19:43:59.714Z,76.64
2023-04-02T19:46:26.846Z,75.48
2023-04-02T19:48:53.460Z,77.26
2023-04-02T19:51:20.128Z,76.89
2023-04-02T19:53:46.779Z,76.38
2023-04-02T19:56:13.500Z,77.32
2023-04-02T19:58:40.117Z,75.52
2023-04-02T20:01:06.773Z,76.48
2023-04-02T20:03:33.536Z,77.00
2023-04-02T20:06:00.317Z,75.90
2023-04-02T20:08:27.919Z,75.91
2023-04-02T20:10:55.071Z,76.10
2023-04-02T20:13:21.772Z,74.58
2023-04-02T20:15:48.520Z,75.08
2023-04-02T20:18:15.218Z,75.61
2023-04-02T20:20:42.006Z,75.03
2023-04-02T20:23:09.011Z,74.24
2023-04-02T20:25:35.658Z,74.87
2023-04-02T20:28:02.357Z,75.51
2023-04-02T20:30:29.035Z,76.78
2023-04-02T20:32:58.543Z,77.13
2023-04-02T20:35:25.351Z,76.19
2023-04-02T20:37:52.197Z,76.45
2023-04-02T20:40:18.844Z,76.90
2023-04-02T20:42:45.543Z,76.92
2023-04-02T20:45:12.190Z,78.39
2023-04-02T20:47:38.823Z,78.08
2023-04-02T20:50:05.994Z,78.73
2023-04-02T20:52:33.240Z,79.79
2023-04-02T20:55:00.054Z,77.50
2023-04-02T20:57:29.499Z,76.52
2023-04-02T20:59:56.256Z,78.12
2023-04-02T21:02:22.909Z,79.34
2023-04-02T21:04:49.536Z,81.07
2023-04-02T21:07:16.169Z,78.65
2023-04-02T21:09:42.811Z,81.30
2023-04-02T21:12:09.452Z,80.18
2023-04-02T21:14:36.099Z,80.40
2023-04-02T21:17:03.266Z,79.96
2023-04-02T21:19:29.855Z,80.20
2023-04-02T21:21:56.430Z,79.96
2023-04-02T21:24:23.047Z,80.15
2023-04-02T21:26:50.441Z,80.49
2023-04-02T21:29:17.255Z,78.12
2023-04-02T21:31:43.985Z,78.90
2023-04-02T21:34:14.569Z,78.38
2023-04-02T21:36:44.467Z,80.71
2023-04-02T21:39:16.821Z,80.80
2023-04-02T21:41:45.091Z,78.93
2023-04-02T21:44:17.007Z,77.93
2023-04-02T21:46:44.496Z,79.71
2023-04-02T21:49:13.576Z,78.82
2023-04-02T21:51:41.938Z,80.82
2023-04-02T21:54:08.904Z,80.56
2023-04-02T21:56:37.835Z,81.71
2023-04-02T21:59:05.766Z,81.53
2023-04-02T22:01:38.606Z,82.41
2023-04-02T22:04:07.718Z,83.24
2023-04-02T22:06:40.209Z,83.83
2023-04-02T22:09:13.626Z,84.80
2023-04-02T22:11:44.653Z,87.45
2023-04-02T22:14:11.494Z,90.68
2023-04-02T22:16:38.398Z,96.85
2023-04-02T22:19:08.189Z,100.00
2023-04-02T22:21:36.065Z,100.00
2023-04-02T22:24:06.457Z,100.00
2023-04-02T22:26:33.651Z,100.00
2023-04-02T22:29:00.991Z,100.00
2023-04-02T22:31:29.756Z,100.00
2023-04-02T22:33:57.684Z,100.00
2023-04-02T22:36:26.449Z,100.00
2023-04-02T22:38:53.059Z,100.00
2023-04-02T22:41:22.216Z,100.00
2023-04-02T22:43:49.474Z,100.00
2023-04-02T22:46:18.693Z,100.00
2023-04-02T22:48:46.874Z,100.00
2023-04-02T22:51:15.599Z,100.00
2023-04-02T22:53:42.341Z,100.00
2023-04-02T22:56:18.451Z,100.00
2023-04-02T22:58:45.532Z,100.00
2023-04-02T23:01:25.295Z,100.00
2023-04-02T23:03:55.765Z,100.00
2023-04-02T23:06:23.946Z,100.00
2023-04-02T23:08:51.208Z,100.00
2023-04-02T23:11:20.993Z,100.00
2023-04-02T23:13:49.422Z,100.00
2023-04-02T23:16:17.275Z,99.36
2023-04-02T23:18:45.642Z,96.84
2023-04-02T23:21:12.245Z,93.78
2023-04-02T23:23:38.948Z,92.74
2023-04-02T23:26:09.382Z,92.61
2023-04-02T23:28:37.218Z,88.73
2023-04-02T23:31:05.885Z,92.55
2023-04-02T23:33:32.741Z,89.57
2023-04-02T23:35:59.441Z,91.58
2023-04-02T23:38:26.993Z,87.80
2023-04-02T23:40:53.670Z,85.29
2023-04-02T23:43:20.326Z,86.00
2023-04-02T23:45:48.665Z,87.55
2023-04-02T23:48:16.400Z,86.69
2023-04-02T23:50:44.916Z,88.62
2023-04-02T23:53:12.538Z,86.69
2023-04-02T23:55:40.279Z,84.38
2023-04-02T23:58:07.173Z,84.45
